sensor_id;sensor_type;location;lat;lon;timestamp;pressure;altitude;pressure_sealevel;temperature;humidity
75065;BME280;63646;49.110;9.140;2022-10-30T00:01:48;99794.94;;;23.30;60.02
75065;BME280;63646;49.110;9.140;2022-10-30T00:04:13;99800.13;;;23.31;60.26
75065;BME280;63646;49.110;9.140;2022-10-30T00:06:39;99790.75;;;23.27;60.35
75065;BME280;63646;49.110;9.140;2022-10-30T00:09:04;99794.09;;;23.29;60.11
75065;BME280;63646;49.110;9.140;2022-10-30T00:11:29;99795.75;;;23.30;60.21
75065;BME280;63646;49.110;9.140;2022-10-30T00:13:55;99788.75;;;23.29;60.14
75065;BME280;63646;49.110;9.140;2022-10-30T00:16:20;99783.44;;;23.29;60.11
75065;BME280;63646;49.110;9.140;2022-10-30T00:18:45;99780.75;;;23.29;60.00
75065;BME280;63646;49.110;9.140;2022-10-30T00:21:12;99781.75;;;23.28;60.01
75065;BME280;63646;49.110;9.140;2022-10-30T00:23:44;99785.44;;;23.27;60.02
75065;BME280;63646;49.110;9.140;2022-10-30T00:26:10;99782.88;;;23.26;60.15
75065;BME280;63646;49.110;9.140;2022-10-30T00:28:36;99775.88;;;23.25;59.97
75065;BME280;63646;49.110;9.140;2022-10-30T00:31:02;99780.22;;;23.26;60.08
75065;BME280;63646;49.110;9.140;2022-10-30T00:33:28;99775.88;;;23.25;60.17
75065;BME280;63646;49.110;9.140;2022-10-30T00:35:53;99779.38;;;23.25;60.35
75065;BME280;63646;49.110;9.140;2022-10-30T00:38:19;99773.22;;;23.25;60.17
75065;BME280;63646;49.110;9.140;2022-10-30T00:40:45;99768.00;;;23.23;60.04
75065;BME280;63646;49.110;9.140;2022-10-30T00:43:30;99768.00;;;23.23;60.11
75065;BME280;63646;49.110;9.140;2022-10-30T00:45:58;99760.00;;;23.23;60.06
75065;BME280;63646;49.110;9.140;2022-10-30T00:48:25;99776.00;;;23.23;60.26
75065;BME280;63646;49.110;9.140;2022-10-30T00:50:51;99770.69;;;23.23;60.02
75065;BME280;63646;49.110;9.140;2022-10-30T00:53:18;99760.19;;;23.22;60.03
75065;BME280;63646;49.110;9.140;2022-10-30T00:55:54;99764.81;;;23.20;60.04
75065;BME280;63646;49.110;9.140;2022-10-30T00:58:31;99765.66;;;23.20;59.96
75065;BME280;63646;49.110;9.140;2022-10-30T01:00:59;99750.63;;;23.19;60.14
75065;BME280;63646;49.110;9.140;2022-10-30T01:03:27;99747.28;;;23.17;59.96
75065;BME280;63646;49.110;9.140;2022-10-30T01:05:56;99745.31;;;23.19;60.31
75065;BME280;63646;49.110;9.140;2022-10-30T01:08:23;99739.97;;;23.19;60.14
75065;BME280;63646;49.110;9.140;2022-10-30T01:10:49;99740.69;;;23.21;59.99
75065;BME280;63646;49.110;9.140;2022-10-30T01:13:16;99736.34;;;23.20;60.02
75065;BME280;63646;49.110;9.140;2022-10-30T01:38:28;99746.59;;;23.15;60.00
75065;BME280;63646;49.110;9.140;2022-10-30T01:40:56;99748.13;;;23.18;59.99
75065;BME280;63646;49.110;9.140;2022-10-30T01:43:21;99748.41;;;23.14;60.04
75065;BME280;63646;49.110;9.140;2022-10-30T01:48:46;99753.75;;;23.14;59.98
75065;BME280;63646;49.110;9.140;2022-10-30T01:51:41;99747.59;;;23.14;59.93
75065;BME280;63646;49.110;9.140;2022-10-30T01:59:51;99735.38;;;23.11;60.02
75065;BME280;63646;49.110;9.140;2022-10-30T02:02:18;99735.25;;;23.13;60.06
75065;BME280;63646;49.110;9.140;2022-10-30T02:04:43;99734.41;;;23.12;60.20
75065;BME280;63646;49.110;9.140;2022-10-30T02:07:10;99729.22;;;23.11;59.97
75065;BME280;63646;49.110;9.140;2022-10-30T02:09:35;99729.09;;;23.12;60.03
75065;BME280;63646;49.110;9.140;2022-10-30T02:12:01;99731.59;;;23.14;60.03
75065;BME280;63646;49.110;9.140;2022-10-30T02:14:29;99734.41;;;23.12;60.03
75065;BME280;63646;49.110;9.140;2022-10-30T02:16:57;99733.56;;;23.12;60.07
75065;BME280;63646;49.110;9.140;2022-10-30T02:19:24;99734.41;;;23.12;59.89
75065;BME280;63646;49.110;9.140;2022-10-30T02:21:50;99725.72;;;23.10;60.00
75065;BME280;63646;49.110;9.140;2022-10-30T02:24:16;99724.88;;;23.10;59.74
75065;BME280;63646;49.110;9.140;2022-10-30T02:26:41;99718.72;;;23.09;59.97
75065;BME280;63646;49.110;9.140;2022-10-30T02:29:06;99717.00;;;23.08;60.08
75065;BME280;63646;49.110;9.140;2022-10-30T02:31:32;99712.56;;;23.09;60.07
75065;BME280;63646;49.110;9.140;2022-10-30T02:33:57;99718.84;;;23.08;60.18
75065;BME280;63646;49.110;9.140;2022-10-30T02:36:22;99719.69;;;23.08;60.10
75065;BME280;63646;49.110;9.140;2022-10-30T02:38:49;99725.19;;;23.07;60.16
75065;BME280;63646;49.110;9.140;2022-10-30T02:41:14;99719.84;;;23.07;60.09
75065;BME280;63646;49.110;9.140;2022-10-30T02:43:39;99732.19;;;23.08;59.84
75065;BME280;63646;49.110;9.140;2022-10-30T02:46:05;99730.50;;;23.07;59.98
75065;BME280;63646;49.110;9.140;2022-10-30T02:48:30;99736.66;;;23.07;59.94
75065;BME280;63646;49.110;9.140;2022-10-30T02:51:00;99734.00;;;23.07;60.01
75065;BME280;63646;49.110;9.140;2022-10-30T02:53:26;99730.50;;;23.07;59.69
75065;BME280;63646;49.110;9.140;2022-10-30T02:55:51;99735.00;;;23.06;59.99
75065;BME280;63646;49.110;9.140;2022-10-30T02:58:17;99728.84;;;23.06;59.99
75065;BME280;63646;49.110;9.140;2022-10-30T03:00:42;99732.47;;;23.05;59.99
75065;BME280;63646;49.110;9.140;2022-10-30T03:03:07;99728.13;;;23.04;59.69
75065;BME280;63646;49.110;9.140;2022-10-30T03:05:33;99722.97;;;23.02;60.09
75065;BME280;63646;49.110;9.140;2022-10-30T03:07:58;99724.47;;;23.05;60.12
75065;BME280;63646;49.110;9.140;2022-10-30T03:10:23;99729.81;;;23.05;60.00
75065;BME280;63646;49.110;9.140;2022-10-30T03:12:49;99724.47;;;23.05;59.88
75065;BME280;63646;49.110;9.140;2022-10-30T03:15:14;99722.97;;;23.02;59.88
75065;BME280;63646;49.110;9.140;2022-10-30T03:17:40;99727.44;;;23.02;59.76
75065;BME280;63646;49.110;9.140;2022-10-30T03:20:05;99721.97;;;23.03;60.29
75065;BME280;63646;49.110;9.140;2022-10-30T03:22:31;99715.81;;;23.03;59.81
75065;BME280;63646;49.110;9.140;2022-10-30T03:24:56;99730.78;;;23.04;59.80
75065;BME280;63646;49.110;9.140;2022-10-30T03:27:22;99730.78;;;23.04;59.95
75065;BME280;63646;49.110;9.140;2022-10-30T03:29:47;99726.47;;;23.03;59.87
75065;BME280;63646;49.110;9.140;2022-10-30T03:32:12;99730.13;;;23.02;59.94
75065;BME280;63646;49.110;9.140;2022-10-30T03:34:38;99721.25;;;23.01;59.95
75065;BME280;63646;49.110;9.140;2022-10-30T03:37:03;99726.59;;;23.01;59.81
75065;BME280;63646;49.110;9.140;2022-10-30T03:39:29;99734.75;;;23.00;59.89
75065;BME280;63646;49.110;9.140;2022-10-30T03:41:54;99734.75;;;23.00;59.99
75065;BME280;63646;49.110;9.140;2022-10-30T03:44:20;99732.91;;;23.00;60.07
75065;BME280;63646;49.110;9.140;2022-10-30T03:46:45;99732.91;;;23.00;59.92
75065;BME280;63646;49.110;9.140;2022-10-30T03:49:10;99734.75;;;23.00;59.93
75065;BME280;63646;49.110;9.140;2022-10-30T03:51:36;99736.56;;;22.99;59.89
75065;BME280;63646;49.110;9.140;2022-10-30T03:54:01;99747.06;;;23.01;59.86
75065;BME280;63646;49.110;9.140;2022-10-30T03:56:26;99741.75;;;23.01;59.92
75065;BME280;63646;49.110;9.140;2022-10-30T03:58:52;99735.56;;;23.00;59.81
75065;BME280;63646;49.110;9.140;2022-10-30T04:01:17;99740.06;;;23.00;59.61
75065;BME280;63646;49.110;9.140;2022-10-30T04:03:43;99747.91;;;23.01;59.88
75065;BME280;63646;49.110;9.140;2022-10-30T04:06:08;99746.25;;;23.00;59.99
75065;BME280;63646;49.110;9.140;2022-10-30T04:08:33;99739.25;;;22.99;59.74
75065;BME280;63646;49.110;9.140;2022-10-30T04:10:59;99736.56;;;22.99;59.82
75065;BME280;63646;49.110;9.140;2022-10-30T04:13:24;99737.41;;;23.00;59.75
75065;BME280;63646;49.110;9.140;2022-10-30T04:15:50;99736.56;;;22.99;59.70
75065;BME280;63646;49.110;9.140;2022-10-30T04:18:16;99735.75;;;22.99;60.11
75065;BME280;63646;49.110;9.140;2022-10-30T04:20:42;99741.91;;;22.99;59.68
75065;BME280;63646;49.110;9.140;2022-10-30T04:23:13;99732.38;;;22.97;59.48
75065;BME280;63646;49.110;9.140;2022-10-30T04:25:38;99738.41;;;22.99;59.85
75065;BME280;63646;49.110;9.140;2022-10-30T04:28:04;99732.25;;;22.98;59.89
75065;BME280;63646;49.110;9.140;2022-10-30T04:30:29;99737.56;;;22.98;59.65
75065;BME280;63646;49.110;9.140;2022-10-30T04:33:00;99737.69;;;22.97;59.91
75065;BME280;63646;49.110;9.140;2022-10-30T04:35:28;99741.34;;;22.96;59.79
75065;BME280;63646;49.110;9.140;2022-10-30T04:40:22;99740.38;;;22.97;59.64
75065;BME280;63646;49.110;9.140;2022-10-30T04:42:47;99733.66;;;22.93;59.82
75065;BME280;63646;49.110;9.140;2022-10-30T04:45:13;99730.69;;;22.96;59.59
75065;BME280;63646;49.110;9.140;2022-10-30T04:47:38;99735.19;;;22.95;59.89
75065;BME280;63646;49.110;9.140;2022-10-30T04:50:04;99731.69;;;22.95;59.64
75065;BME280;63646;49.110;9.140;2022-10-30T04:52:30;99733.53;;;22.94;59.72
75065;BME280;63646;49.110;9.140;2022-10-30T04:54:56;99734.34;;;22.95;59.70
75065;BME280;63646;49.110;9.140;2022-10-30T04:57:21;99721.16;;;22.93;59.73
75065;BME280;63646;49.110;9.140;2022-10-30T04:59:47;99730.00;;;22.94;59.91
75065;BME280;63646;49.110;9.140;2022-10-30T05:02:12;99727.19;;;22.95;59.72
75065;BME280;63646;49.110;9.140;2022-10-30T05:04:38;99730.00;;;22.94;59.71
75065;BME280;63646;49.110;9.140;2022-10-30T05:07:03;99716.66;;;22.94;59.86
75065;BME280;63646;49.110;9.140;2022-10-30T05:09:28;99727.31;;;22.94;59.78
75065;BME280;63646;49.110;9.140;2022-10-30T05:11:54;99714.28;;;22.90;60.21
75065;BME280;63646;49.110;9.140;2022-10-30T05:14:19;99722.28;;;22.90;59.79
75065;BME280;63646;49.110;9.140;2022-10-30T05:16:45;99715.00;;;22.93;59.94
75065;BME280;63646;49.110;9.140;2022-10-30T05:19:10;99724.94;;;22.90;59.56
75065;BME280;63646;49.110;9.140;2022-10-30T05:21:35;99724.94;;;22.90;59.80
75065;BME280;63646;49.110;9.140;2022-10-30T05:24:01;99717.66;;;22.93;59.94
75065;BME280;63646;49.110;9.140;2022-10-30T05:26:26;99715.00;;;22.93;59.97
75065;BME280;63646;49.110;9.140;2022-10-30T05:28:51;99715.13;;;22.91;59.72
75065;BME280;63646;49.110;9.140;2022-10-30T05:31:17;99716.81;;;22.92;59.99
75065;BME280;63646;49.110;9.140;2022-10-30T05:33:42;99711.34;;;22.94;59.93
75065;BME280;63646;49.110;9.140;2022-10-30T05:36:08;99720.03;;;22.96;59.84
75065;BME280;63646;49.110;9.140;2022-10-30T05:38:33;99718.38;;;22.95;60.00
75065;BME280;63646;49.110;9.140;2022-10-30T05:40:58;99713.72;;;22.97;60.05
75065;BME280;63646;49.110;9.140;2022-10-30T05:43:24;99720.03;;;22.96;60.24
75065;BME280;63646;49.110;9.140;2022-10-30T05:45:49;99720.88;;;22.96;60.25
75065;BME280;63646;49.110;9.140;2022-10-30T05:48:15;99710.22;;;22.96;60.34
75065;BME280;63646;49.110;9.140;2022-10-30T05:50:40;99711.47;;;23.02;60.17
75065;BME280;63646;49.110;9.140;2022-10-30T05:53:05;99715.81;;;23.03;60.07
75065;BME280;63646;49.110;9.140;2022-10-30T05:55:31;99715.63;;;23.04;60.11
75065;BME280;63646;49.110;9.140;2022-10-30T05:57:58;99713.81;;;23.05;60.30
75065;BME280;63646;49.110;9.140;2022-10-30T06:00:25;99719.28;;;23.03;60.36
75065;BME280;63646;49.110;9.140;2022-10-30T06:02:51;99718.91;;;22.98;59.93
75065;BME280;63646;49.110;9.140;2022-10-30T06:05:16;99715.41;;;22.98;59.51
75065;BME280;63646;49.110;9.140;2022-10-30T06:07:41;99708.38;;;22.97;59.78
75065;BME280;63646;49.110;9.140;2022-10-30T06:10:07;99719.03;;;22.97;59.48
75065;BME280;63646;49.110;9.140;2022-10-30T06:12:32;99720.75;;;22.98;58.68
75065;BME280;63646;49.110;9.140;2022-10-30T06:14:58;99719.03;;;22.97;59.36
75065;BME280;63646;49.110;9.140;2022-10-30T06:17:23;99720.75;;;22.98;59.30
75065;BME280;63646;49.110;9.140;2022-10-30T06:19:48;99727.75;;;22.99;59.57
75065;BME280;63646;49.110;9.140;2022-10-30T06:22:14;99719.59;;;23.00;59.39
75065;BME280;63646;49.110;9.140;2022-10-30T06:24:39;99721.25;;;23.01;59.28
75065;BME280;63646;49.110;9.140;2022-10-30T06:27:04;99715.09;;;23.01;59.07
75065;BME280;63646;49.110;9.140;2022-10-30T06:29:30;99719.59;;;23.00;59.04
75065;BME280;63646;49.110;9.140;2022-10-30T06:31:55;99727.44;;;23.02;59.17
75065;BME280;63646;49.110;9.140;2022-10-30T06:34:20;99725.75;;;23.01;59.18
75065;BME280;63646;49.110;9.140;2022-10-30T06:36:46;99731.78;;;23.03;59.20
75065;BME280;63646;49.110;9.140;2022-10-30T06:39:11;99738.78;;;23.04;59.22
75065;BME280;63646;49.110;9.140;2022-10-30T06:41:36;99746.78;;;23.04;59.34
75065;BME280;63646;49.110;9.140;2022-10-30T06:44:02;99740.63;;;23.03;59.23
75065;BME280;63646;49.110;9.140;2022-10-30T06:46:27;99746.78;;;23.04;59.22
75065;BME280;63646;49.110;9.140;2022-10-30T06:48:52;99734.28;;;23.04;59.16
75065;BME280;63646;49.110;9.140;2022-10-30T06:51:18;99734.47;;;23.03;59.20
75065;BME280;63646;49.110;9.140;2022-10-30T06:53:43;99741.47;;;23.04;59.50
75065;BME280;63646;49.110;9.140;2022-10-30T06:56:09;99742.16;;;23.06;59.26
75065;BME280;63646;49.110;9.140;2022-10-30T06:58:34;99750.16;;;23.06;59.25
75065;BME280;63646;49.110;9.140;2022-10-30T07:01:04;99750.16;;;23.06;59.37
75065;BME280;63646;49.110;9.140;2022-10-30T07:03:30;99750.16;;;23.06;59.16
75065;BME280;63646;49.110;9.140;2022-10-30T07:05:55;99751.81;;;23.07;59.46
75065;BME280;63646;49.110;9.140;2022-10-30T07:08:20;99754.50;;;23.07;59.33
75065;BME280;63646;49.110;9.140;2022-10-30T07:10:46;99756.03;;;23.09;59.75
75065;BME280;63646;49.110;9.140;2022-10-30T07:13:11;99756.88;;;23.10;59.34
75065;BME280;63646;49.110;9.140;2022-10-30T07:15:36;99760.53;;;23.09;59.54
75065;BME280;63646;49.110;9.140;2022-10-30T07:18:03;99762.19;;;23.10;59.17
75065;BME280;63646;49.110;9.140;2022-10-30T07:20:31;99762.19;;;23.10;59.42
75065;BME280;63646;49.110;9.140;2022-10-30T07:22:58;99757.72;;;23.10;59.46
75065;BME280;63646;49.110;9.140;2022-10-30T07:25:23;99764.72;;;23.11;59.47
75065;BME280;63646;49.110;9.140;2022-10-30T07:27:50;99764.56;;;23.13;59.40
75065;BME280;63646;49.110;9.140;2022-10-30T07:30:21;99768.22;;;23.12;59.38
75065;BME280;63646;49.110;9.140;2022-10-30T07:33:01;99761.91;;;23.13;59.14
75065;BME280;63646;49.110;9.140;2022-10-30T07:35:27;99764.28;;;23.16;59.22
75065;BME280;63646;49.110;9.140;2022-10-30T07:37:53;99765.78;;;23.19;59.50
75065;BME280;63646;49.110;9.140;2022-10-30T07:40:20;99763.00;;;23.20;59.57
75065;BME280;63646;49.110;9.140;2022-10-30T07:42:45;99754.13;;;23.20;59.78
75065;BME280;63646;49.110;9.140;2022-10-30T07:45:11;99768.88;;;23.24;59.55
75065;BME280;63646;49.110;9.140;2022-10-30T07:47:40;99770.56;;;23.25;59.59
75065;BME280;63646;49.110;9.140;2022-10-30T07:50:07;99766.88;;;23.26;59.67
75065;BME280;63646;49.110;9.140;2022-10-30T07:52:33;99771.22;;;23.27;59.48
75065;BME280;63646;49.110;9.140;2022-10-30T07:54:58;99775.72;;;23.26;59.81
75065;BME280;63646;49.110;9.140;2022-10-30T07:57:23;99769.44;;;23.27;59.43
75065;BME280;63646;49.110;9.140;2022-10-30T07:59:49;99766.88;;;23.26;59.47
75065;BME280;63646;49.110;9.140;2022-10-30T08:02:14;99770.25;;;23.28;59.58
75065;BME280;63646;49.110;9.140;2022-10-30T08:04:39;99772.09;;;23.27;59.46
75065;BME280;63646;49.110;9.140;2022-10-30T08:07:05;99767.44;;;23.29;59.75
75065;BME280;63646;49.110;9.140;2022-10-30T08:09:30;99777.09;;;23.30;59.61
75065;BME280;63646;49.110;9.140;2022-10-30T08:11:56;99773.59;;;23.30;60.01
75065;BME280;63646;49.110;9.140;2022-10-30T08:14:21;99778.94;;;23.30;59.51
75065;BME280;63646;49.110;9.140;2022-10-30T08:16:46;99774.44;;;23.30;59.74
75065;BME280;63646;49.110;9.140;2022-10-30T08:19:12;99776.13;;;23.31;59.46
75065;BME280;63646;49.110;9.140;2022-10-30T08:21:37;99779.47;;;23.33;59.35
75065;BME280;63646;49.110;9.140;2022-10-30T08:24:02;99770.81;;;23.31;59.49
75065;BME280;63646;49.110;9.140;2022-10-30T08:26:28;99781.47;;;23.31;59.50
75065;BME280;63646;49.110;9.140;2022-10-30T08:28:53;99771.94;;;23.29;59.25
75065;BME280;63646;49.110;9.140;2022-10-30T08:31:19;99767.13;;;23.32;59.02
75065;BME280;63646;49.110;9.140;2022-10-30T08:33:44;99770.66;;;23.33;59.00
75065;BME280;63646;49.110;9.140;2022-10-30T08:36:10;99767.13;;;23.32;59.20
75065;BME280;63646;49.110;9.140;2022-10-30T08:38:35;99776.69;;;23.35;59.35
75065;BME280;63646;49.110;9.140;2022-10-30T08:41:01;99770.50;;;23.34;59.47
75065;BME280;63646;49.110;9.140;2022-10-30T08:43:27;99771.34;;;23.35;59.47
75065;BME280;63646;49.110;9.140;2022-10-30T08:45:52;99766.00;;;23.35;59.35
75065;BME280;63646;49.110;9.140;2022-10-30T08:48:17;99777.53;;;23.35;59.13
75065;BME280;63646;49.110;9.140;2022-10-30T08:50:45;99772.19;;;23.35;59.31
75065;BME280;63646;49.110;9.140;2022-10-30T08:53:12;99771.94;;;23.29;54.12
75065;BME280;63646;49.110;9.140;2022-10-30T08:55:38;99774.03;;;22.98;50.66
75065;BME280;63646;49.110;9.140;2022-10-30T08:58:03;99773.22;;;22.78;50.99
75065;BME280;63646;49.110;9.140;2022-10-30T09:00:29;99771.56;;;22.67;51.39
75065;BME280;63646;49.110;9.140;2022-10-30T09:02:55;99775.91;;;22.68;51.59
75065;BME280;63646;49.110;9.140;2022-10-30T09:05:20;99771.44;;;22.69;51.18
75065;BME280;63646;49.110;9.140;2022-10-30T09:07:46;99767.50;;;22.73;51.63
75065;BME280;63646;49.110;9.140;2022-10-30T09:10:12;99773.66;;;22.73;51.32
75065;BME280;63646;49.110;9.140;2022-10-30T09:12:38;99770.72;;;22.76;51.68
75065;BME280;63646;49.110;9.140;2022-10-30T09:15:04;99775.88;;;22.78;51.92
75065;BME280;63646;49.110;9.140;2022-10-30T09:17:29;99775.19;;;22.76;52.13
75065;BME280;63646;49.110;9.140;2022-10-30T09:19:54;99770.44;;;22.79;52.21
75065;BME280;63646;49.110;9.140;2022-10-30T09:22:20;99766.78;;;22.80;52.19
75065;BME280;63646;49.110;9.140;2022-10-30T09:24:45;99764.78;;;22.82;52.73
75065;BME280;63646;49.110;9.140;2022-10-30T09:27:11;99771.81;;;22.83;52.66
75065;BME280;63646;49.110;9.140;2022-10-30T09:29:36;99769.28;;;22.82;52.51
75065;BME280;63646;49.110;9.140;2022-10-30T09:32:02;99768.44;;;22.81;52.62
75065;BME280;63646;49.110;9.140;2022-10-30T09:34:29;99775.44;;;22.82;52.65
75065;BME280;63646;49.110;9.140;2022-10-30T09:36:55;99770.97;;;22.83;53.04
75065;BME280;63646;49.110;9.140;2022-10-30T09:39:20;99774.47;;;22.83;52.72
75065;BME280;63646;49.110;9.140;2022-10-30T09:52:29;99778.53;;;22.87;53.11
75065;BME280;63646;49.110;9.140;2022-10-30T09:58:32;99777.00;;;22.95;53.67
75065;BME280;63646;49.110;9.140;2022-10-30T10:01:26;99771.38;;;22.98;54.04
75065;BME280;63646;49.110;9.140;2022-10-30T10:06:45;99775.44;;;23.02;53.99
75065;BME280;63646;49.110;9.140;2022-10-30T10:09:16;99766.28;;;23.04;54.61
75065;BME280;63646;49.110;9.140;2022-10-30T10:11:46;99772.44;;;23.05;54.68
75065;BME280;63646;49.110;9.140;2022-10-30T10:14:20;99775.66;;;23.08;54.67
75065;BME280;63646;49.110;9.140;2022-10-30T10:16:52;99772.31;;;23.06;54.83
75065;BME280;63646;49.110;9.140;2022-10-30T10:24:25;99762.50;;;23.07;54.56
75065;BME280;63646;49.110;9.140;2022-10-30T10:37:39;99754.88;;;23.12;54.69
75065;BME280;63646;49.110;9.140;2022-10-30T10:42:54;99754.03;;;23.11;54.77
75065;BME280;63646;49.110;9.140;2022-10-30T10:45:50;99747.88;;;23.11;54.62
75065;BME280;63646;49.110;9.140;2022-10-30T10:51:01;99739.88;;;23.11;54.50
75065;BME280;63646;49.110;9.140;2022-10-30T10:56:06;99737.91;;;23.13;54.40
75065;BME280;63646;49.110;9.140;2022-10-30T11:01:13;99734.25;;;23.14;54.49
75065;BME280;63646;49.110;9.140;2022-10-30T11:03:51;99730.59;;;23.15;54.22
75065;BME280;63646;49.110;9.140;2022-10-30T11:06:42;99741.25;;;23.15;54.40
75065;BME280;63646;49.110;9.140;2022-10-30T11:09:18;99736.94;;;23.14;54.53
75065;BME280;63646;49.110;9.140;2022-10-30T11:11:49;99729.63;;;23.16;54.49
75065;BME280;63646;49.110;9.140;2022-10-30T11:14:20;99719.94;;;23.15;54.67
75065;BME280;63646;49.110;9.140;2022-10-30T11:19:32;99713.63;;;23.16;54.57
75065;BME280;63646;49.110;9.140;2022-10-30T11:21:58;99710.09;;;23.15;54.41
75065;BME280;63646;49.110;9.140;2022-10-30T11:24:32;99706.47;;;23.17;54.48
75065;BME280;63646;49.110;9.140;2022-10-30T11:27:22;99711.47;;;23.20;54.30
75065;BME280;63646;49.110;9.140;2022-10-30T11:29:52;99700.16;;;23.18;54.49
75065;BME280;63646;49.110;9.140;2022-10-30T11:32:20;99697.31;;;23.19;54.87
75065;BME280;63646;49.110;9.140;2022-10-30T11:35:10;99709.69;;;23.20;54.46
75065;BME280;63646;49.110;9.140;2022-10-30T11:37:38;99700.69;;;23.21;54.72
75065;BME280;63646;49.110;9.140;2022-10-30T11:40:24;99701.53;;;23.22;54.59
75065;BME280;63646;49.110;9.140;2022-10-30T11:42:56;99698.69;;;23.23;54.41
75065;BME280;63646;49.110;9.140;2022-10-30T11:45:28;99701.22;;;23.25;54.90
75065;BME280;63646;49.110;9.140;2022-10-30T11:47:56;99698.09;;;23.29;55.38
75065;BME280;63646;49.110;9.140;2022-10-30T11:50:27;99696.97;;;23.32;56.90
75065;BME280;63646;49.110;9.140;2022-10-30T11:53:00;99690.34;;;23.36;57.41
75065;BME280;63646;49.110;9.140;2022-10-30T11:55:34;99689.88;;;23.41;56.80
75065;BME280;63646;49.110;9.140;2022-10-30T11:58:01;99695.63;;;23.46;56.92
75065;BME280;63646;49.110;9.140;2022-10-30T12:00:30;99689.00;;;23.50;57.08
75065;BME280;63646;49.110;9.140;2022-10-30T12:02:57;99692.34;;;23.52;56.62
75065;BME280;63646;49.110;9.140;2022-10-30T12:07:52;99689.22;;;23.56;56.07
75065;BME280;63646;49.110;9.140;2022-10-30T12:10:24;99682.06;;;23.57;55.95
75065;BME280;63646;49.110;9.140;2022-10-30T12:12:50;99678.41;;;23.58;55.46
75065;BME280;63646;49.110;9.140;2022-10-30T12:15:23;99682.75;;;23.59;55.26
75065;BME280;63646;49.110;9.140;2022-10-30T12:17:54;99679.41;;;23.57;55.52
75065;BME280;63646;49.110;9.140;2022-10-30T12:20:22;99677.69;;;23.56;55.63
75065;BME280;63646;49.110;9.140;2022-10-30T12:22:49;99677.69;;;23.56;55.49
75065;BME280;63646;49.110;9.140;2022-10-30T12:27:50;99674.91;;;23.57;55.61
75065;BME280;63646;49.110;9.140;2022-10-30T12:30:22;99671.41;;;23.57;55.62
75065;BME280;63646;49.110;9.140;2022-10-30T12:38:05;99674.75;;;23.59;55.38
75065;BME280;63646;49.110;9.140;2022-10-30T12:40:40;99670.41;;;23.58;55.57
75065;BME280;63646;49.110;9.140;2022-10-30T12:45:42;99677.41;;;23.59;55.51
75065;BME280;63646;49.110;9.140;2022-10-30T12:48:16;99671.25;;;23.58;55.54
75065;BME280;63646;49.110;9.140;2022-10-30T12:55:48;99674.59;;;23.60;55.51
75065;BME280;63646;49.110;9.140;2022-10-30T13:01:00;99669.28;;;23.60;55.70
75065;BME280;63646;49.110;9.140;2022-10-30T13:03:35;99667.56;;;23.59;55.60
75065;BME280;63646;49.110;9.140;2022-10-30T13:13:39;99660.41;;;23.60;56.35
75065;BME280;63646;49.110;9.140;2022-10-30T13:16:17;99660.56;;;23.58;56.56
75065;BME280;63646;49.110;9.140;2022-10-30T13:18:44;99659.56;;;23.59;56.49
75065;BME280;63646;49.110;9.140;2022-10-30T13:23:38;99656.06;;;23.59;56.48
75065;BME280;63646;49.110;9.140;2022-10-30T13:29:28;99655.22;;;23.58;56.76
75065;BME280;63646;49.110;9.140;2022-10-30T13:42:35;99656.91;;;23.59;56.78
75065;BME280;63646;49.110;9.140;2022-10-30T13:45:27;99647.94;;;23.60;56.91
75065;BME280;63646;49.110;9.140;2022-10-30T13:48:29;99649.72;;;23.60;56.92
75065;BME280;63646;49.110;9.140;2022-10-30T13:51:19;99648.59;;;23.62;56.77
75065;BME280;63646;49.110;9.140;2022-10-30T13:53:58;99646.94;;;23.61;57.02
75065;BME280;63646;49.110;9.140;2022-10-30T13:56:24;99641.72;;;23.60;56.69
75065;BME280;63646;49.110;9.140;2022-10-30T14:04:45;99645.09;;;23.62;56.56
75065;BME280;63646;49.110;9.140;2022-10-30T14:10:04;99639.06;;;23.60;56.83
75065;BME280;63646;49.110;9.140;2022-10-30T14:12:49;99637.41;;;23.59;56.40
75065;BME280;63646;49.110;9.140;2022-10-30T14:15:30;99638.41;;;23.58;56.92
75065;BME280;63646;49.110;9.140;2022-10-30T14:20:48;99643.72;;;23.58;57.11
75065;BME280;63646;49.110;9.140;2022-10-30T14:23:33;99642.91;;;23.57;57.16
75065;BME280;63646;49.110;9.140;2022-10-30T14:28:29;99637.56;;;23.57;57.18
75065;BME280;63646;49.110;9.140;2022-10-30T14:36:16;99647.41;;;23.57;57.32
75065;BME280;63646;49.110;9.140;2022-10-30T14:38:54;99650.19;;;23.55;57.18
75065;BME280;63646;49.110;9.140;2022-10-30T14:41:28;99651.88;;;23.56;57.50
75065;BME280;63646;49.110;9.140;2022-10-30T14:46:55;99650.19;;;23.55;57.45
75065;BME280;63646;49.110;9.140;2022-10-30T14:52:27;99654.69;;;23.55;57.47
75065;BME280;63646;49.110;9.140;2022-10-30T14:57:51;99648.84;;;23.51;57.50
75065;BME280;63646;49.110;9.140;2022-10-30T15:00:38;99649.66;;;23.52;57.64
75065;BME280;63646;49.110;9.140;2022-10-30T15:06:02;99651.38;;;23.53;57.58
75065;BME280;63646;49.110;9.140;2022-10-30T15:14:27;99648.16;;;23.49;57.50
75065;BME280;63646;49.110;9.140;2022-10-30T15:16:54;99648.00;;;23.51;57.49
75065;BME280;63646;49.110;9.140;2022-10-30T15:19:21;99644.63;;;23.49;57.62
75065;BME280;63646;49.110;9.140;2022-10-30T15:21:51;99645.50;;;23.49;57.46
75065;BME280;63646;49.110;9.140;2022-10-30T15:24:18;99648.28;;;23.48;57.55
75065;BME280;63646;49.110;9.140;2022-10-30T15:26:49;99653.63;;;23.48;57.53
75065;BME280;63646;49.110;9.140;2022-10-30T15:29:18;99650.28;;;23.46;57.77
75065;BME280;63646;49.110;9.140;2022-10-30T15:31:56;99652.09;;;23.45;57.73
75065;BME280;63646;49.110;9.140;2022-10-30T15:34:21;99649.44;;;23.45;57.90
75065;BME280;63646;49.110;9.140;2022-10-30T15:36:47;99647.75;;;23.44;57.93
75065;BME280;63646;49.110;9.140;2022-10-30T15:39:16;99647.63;;;23.46;57.92
75065;BME280;63646;49.110;9.140;2022-10-30T15:41:47;99644.25;;;23.44;57.99
75065;BME280;63646;49.110;9.140;2022-10-30T15:44:22;99642.59;;;23.43;58.04
75065;BME280;63646;49.110;9.140;2022-10-30T15:46:51;99644.25;;;23.44;57.93